sensor_id;sensor_type;location;lat;lon;timestamp;temperature;humidity
13472;DHT22;6808;49.444;11.034;2024-01-06T00:01:11;4.80;99.90
13472;DHT22;6808;49.444;11.034;2024-01-06T00:03:37;4.70;99.90
13472;DHT22;6808;49.444;11.034;2024-01-06T00:06:03;4.90;99.90
13472;DHT22;6808;49.444;11.034;2024-01-06T00:08:29;4.70;99.90
13472;DHT22;6808;49.444;11.034;2024-01-06T00:10:54;4.70;99.90
13472;DHT22;6808;49.444;11.034;2024-01-06T00:13:20;4.70;99.90
13472;DHT22;6808;49.444;11.034;2024-01-06T00:15:46;4.80;99.90
13472;DHT22;6808;49.444;11.034;2024-01-06T00:18:11;4.80;99.90
13472;DHT22;6808;49.444;11.034;2024-01-06T00:20:37;4.80;99.90
13472;DHT22;6808;49.444;11.034;2024-01-06T00:23:02;4.70;99.90
13472;DHT22;6808;49.444;11.034;2024-01-06T00:25:28;4.70;99.90
13472;DHT22;6808;49.444;11.034;2024-01-06T00:27:54;4.70;99.90
13472;DHT22;6808;49.444;11.034;2024-01-06T00:30:19;4.70;99.90
13472;DHT22;6808;49.444;11.034;2024-01-06T00:32:45;4.70;99.90
13472;DHT22;6808;49.444;11.034;2024-01-06T00:35:10;4.70;99.90
13472;DHT22;6808;49.444;11.034;2024-01-06T00:37:36;4.70;99.90
13472;DHT22;6808;49.444;11.034;2024-01-06T00:40:01;4.70;99.90
13472;DHT22;6808;49.444;11.034;2024-01-06T00:42:27;4.70;99.90
13472;DHT22;6808;49.444;11.034;2024-01-06T00:44:53;4.70;99.90
13472;DHT22;6808;49.444;11.034;2024-01-06T00:47:19;4.60;99.90
13472;DHT22;6808;49.444;11.034;2024-01-06T00:49:47;4.60;99.90
13472;DHT22;6808;49.444;11.034;2024-01-06T00:52:13;4.60;99.90
13472;DHT22;6808;49.444;11.034;2024-01-06T00:54:38;4.60;99.90
13472;DHT22;6808;49.444;11.034;2024-01-06T00:57:04;4.60;99.90
13472;DHT22;6808;49.444;11.034;2024-01-06T00:59:30;4.60;99.90
13472;DHT22;6808;49.444;11.034;2024-01-06T01:01:56;4.50;99.90
13472;DHT22;6808;49.444;11.034;2024-01-06T01:04:21;4.50;99.90
13472;DHT22;6808;49.444;11.034;2024-01-06T01:06:47;4.40;99.90
13472;DHT22;6808;49.444;11.034;2024-01-06T01:09:12;4.40;99.90
13472;DHT22;6808;49.444;11.034;2024-01-06T01:11:40;4.40;99.90
13472;DHT22;6808;49.444;11.034;2024-01-06T01:14:05;4.40;99.90
13472;DHT22;6808;49.444;11.034;2024-01-06T01:16:31;4.30;99.90
13472;DHT22;6808;49.444;11.034;2024-01-06T01:18:58;4.30;99.90
13472;DHT22;6808;49.444;11.034;2024-01-06T01:21:23;4.30;99.90
13472;DHT22;6808;49.444;11.034;2024-01-06T01:23:49;4.20;99.90
13472;DHT22;6808;49.444;11.034;2024-01-06T01:26:15;4.20;99.90
13472;DHT22;6808;49.444;11.034;2024-01-06T01:28:40;4.20;99.90
13472;DHT22;6808;49.444;11.034;2024-01-06T01:31:06;4.20;99.90
13472;DHT22;6808;49.444;11.034;2024-01-06T01:33:32;4.10;99.90
13472;DHT22;6808;49.444;11.034;2024-01-06T01:35:57;4.10;99.90
13472;DHT22;6808;49.444;11.034;2024-01-06T01:38:23;4.10;99.90
13472;DHT22;6808;49.444;11.034;2024-01-06T01:40:48;4.10;99.90
13472;DHT22;6808;49.444;11.034;2024-01-06T01:43:20;4.10;99.90
13472;DHT22;6808;49.444;11.034;2024-01-06T01:45:53;4.00;99.90
13472;DHT22;6808;49.444;11.034;2024-01-06T01:48:20;4.00;99.90
13472;DHT22;6808;49.444;11.034;2024-01-06T01:50:46;4.00;99.90
13472;DHT22;6808;49.444;11.034;2024-01-06T01:53:12;4.00;99.90
13472;DHT22;6808;49.444;11.034;2024-01-06T01:55:40;3.90;99.90
13472;DHT22;6808;49.444;11.034;2024-01-06T01:58:06;3.90;99.90
13472;DHT22;6808;49.444;11.034;2024-01-06T02:00:32;4.00;99.90
13472;DHT22;6808;49.444;11.034;2024-01-06T02:02:59;4.00;99.90
13472;DHT22;6808;49.444;11.034;2024-01-06T02:05:25;4.00;99.90
13472;DHT22;6808;49.444;11.034;2024-01-06T02:07:50;4.10;99.90
13472;DHT22;6808;49.444;11.034;2024-01-06T02:10:17;4.00;99.90
13472;DHT22;6808;49.444;11.034;2024-01-06T02:12:43;4.00;99.90
13472;DHT22;6808;49.444;11.034;2024-01-06T02:15:08;4.00;99.90
13472;DHT22;6808;49.444;11.034;2024-01-06T02:17:34;4.00;99.90
13472;DHT22;6808;49.444;11.034;2024-01-06T02:19:59;4.00;99.90
13472;DHT22;6808;49.444;11.034;2024-01-06T02:22:25;4.00;99.90
13472;DHT22;6808;49.444;11.034;2024-01-06T02:24:50;4.00;99.90
13472;DHT22;6808;49.444;11.034;2024-01-06T02:27:16;4.10;99.90
13472;DHT22;6808;49.444;11.034;2024-01-06T02:29:41;4.10;99.90
13472;DHT22;6808;49.444;11.034;2024-01-06T02:32:07;4.10;99.90
13472;DHT22;6808;49.444;11.034;2024-01-06T02:34:32;4.00;99.90
13472;DHT22;6808;49.444;11.034;2024-01-06T02:36:59;4.00;99.90
13472;DHT22;6808;49.444;11.034;2024-01-06T02:39:25;4.00;99.90
13472;DHT22;6808;49.444;11.034;2024-01-06T02:41:51;4.00;99.90
13472;DHT22;6808;49.444;11.034;2024-01-06T02:44:16;4.00;99.90
13472;DHT22;6808;49.444;11.034;2024-01-06T02:46:42;4.00;99.90
13472;DHT22;6808;49.444;11.034;2024-01-06T02:49:08;4.00;99.90
13472;DHT22;6808;49.444;11.034;2024-01-06T02:51:33;4.00;99.90
13472;DHT22;6808;49.444;11.034;2024-01-06T02:53:59;4.00;99.90
13472;DHT22;6808;49.444;11.034;2024-01-06T02:56:25;4.00;99.90
13472;DHT22;6808;49.444;11.034;2024-01-06T02:58:50;5.00;99.90
13472;DHT22;6808;49.444;11.034;2024-01-06T03:01:16;4.00;99.90
13472;DHT22;6808;49.444;11.034;2024-01-06T03:03:42;4.00;99.90
13472;DHT22;6808;49.444;11.034;2024-01-06T03:06:09;4.00;99.90
13472;DHT22;6808;49.444;11.034;2024-01-06T03:08:34;4.00;99.90
13472;DHT22;6808;49.444;11.034;2024-01-06T03:11:01;4.00;99.90
13472;DHT22;6808;49.444;11.034;2024-01-06T03:13:29;4.00;99.90
13472;DHT22;6808;49.444;11.034;2024-01-06T03:15:54;4.00;99.90
13472;DHT22;6808;49.444;11.034;2024-01-06T03:18:20;4.00;99.90
13472;DHT22;6808;49.444;11.034;2024-01-06T03:20:45;4.00;99.90
13472;DHT22;6808;49.444;11.034;2024-01-06T03:23:11;4.00;99.90
13472;DHT22;6808;49.444;11.034;2024-01-06T03:25:36;4.00;99.90
13472;DHT22;6808;49.444;11.034;2024-01-06T03:28:02;4.00;99.90
13472;DHT22;6808;49.444;11.034;2024-01-06T03:30:28;3.90;99.90
13472;DHT22;6808;49.444;11.034;2024-01-06T03:32:53;4.00;99.90
13472;DHT22;6808;49.444;11.034;2024-01-06T03:35:19;4.00;99.90
13472;DHT22;6808;49.444;11.034;2024-01-06T03:37:45;3.90;99.90
13472;DHT22;6808;49.444;11.034;2024-01-06T03:40:11;4.00;99.90
13472;DHT22;6808;49.444;11.034;2024-01-06T03:42:36;4.00;99.90
13472;DHT22;6808;49.444;11.034;2024-01-06T03:45:03;4.00;99.90
13472;DHT22;6808;49.444;11.034;2024-01-06T03:47:29;4.00;99.90
13472;DHT22;6808;49.444;11.034;2024-01-06T03:49:54;4.00;99.90
13472;DHT22;6808;49.444;11.034;2024-01-06T03:52:20;4.00;99.90
13472;DHT22;6808;49.444;11.034;2024-01-06T03:54:45;3.90;99.90
13472;DHT22;6808;49.444;11.034;2024-01-06T03:57:11;4.00;99.90
13472;DHT22;6808;49.444;11.034;2024-01-06T03:59:36;3.90;99.90
13472;DHT22;6808;49.444;11.034;2024-01-06T04:02:02;3.90;99.90
13472;DHT22;6808;49.444;11.034;2024-01-06T04:04:27;3.90;99.90
13472;DHT22;6808;49.444;11.034;2024-01-06T04:06:53;3.90;99.90
13472;DHT22;6808;49.444;11.034;2024-01-06T04:09:19;3.90;99.90
13472;DHT22;6808;49.444;11.034;2024-01-06T04:11:44;3.80;99.90
13472;DHT22;6808;49.444;11.034;2024-01-06T04:14:10;3.90;99.90
13472;DHT22;6808;49.444;11.034;2024-01-06T04:16:35;3.90;99.90
13472;DHT22;6808;49.444;11.034;2024-01-06T04:19:01;3.40;99.90
13472;DHT22;6808;49.444;11.034;2024-01-06T04:21:26;3.90;99.90
13472;DHT22;6808;49.444;11.034;2024-01-06T04:23:52;3.90;99.90
13472;DHT22;6808;49.444;11.034;2024-01-06T04:26:17;3.90;99.90
13472;DHT22;6808;49.444;11.034;2024-01-06T04:28:43;3.90;99.90
13472;DHT22;6808;49.444;11.034;2024-01-06T04:31:09;3.90;99.90
13472;DHT22;6808;49.444;11.034;2024-01-06T04:33:34;3.90;99.90
13472;DHT22;6808;49.444;11.034;2024-01-06T04:36:01;3.90;99.90
13472;DHT22;6808;49.444;11.034;2024-01-06T04:38:27;3.90;99.90
13472;DHT22;6808;49.444;11.034;2024-01-06T04:40:52;3.80;99.90
13472;DHT22;6808;49.444;11.034;2024-01-06T04:43:18;3.80;99.90
13472;DHT22;6808;49.444;11.034;2024-01-06T04:45:43;3.80;99.90
13472;DHT22;6808;49.444;11.034;2024-01-06T04:48:09;3.80;99.90
13472;DHT22;6808;49.444;11.034;2024-01-06T04:50:35;3.80;99.90
13472;DHT22;6808;49.444;11.034;2024-01-06T04:53:00;3.80;99.90
13472;DHT22;6808;49.444;11.034;2024-01-06T04:55:26;3.80;99.90
13472;DHT22;6808;49.444;11.034;2024-01-06T04:57:51;3.80;99.90
13472;DHT22;6808;49.444;11.034;2024-01-06T05:00:17;3.80;99.90
13472;DHT22;6808;49.444;11.034;2024-01-06T05:02:42;3.80;99.90
13472;DHT22;6808;49.444;11.034;2024-01-06T05:05:08;3.80;99.90
13472;DHT22;6808;49.444;11.034;2024-01-06T05:07:34;3.80;99.90
13472;DHT22;6808;49.444;11.034;2024-01-06T05:09:59;3.80;99.90
13472;DHT22;6808;49.444;11.034;2024-01-06T05:12:25;3.80;99.90
13472;DHT22;6808;49.444;11.034;2024-01-06T05:14:50;3.80;99.90
13472;DHT22;6808;49.444;11.034;2024-01-06T05:17:16;3.80;99.90
13472;DHT22;6808;49.444;11.034;2024-01-06T05:19:41;3.80;99.90
13472;DHT22;6808;49.444;11.034;2024-01-06T05:22:07;3.80;99.90
13472;DHT22;6808;49.444;11.034;2024-01-06T05:24:33;3.70;99.90
13472;DHT22;6808;49.444;11.034;2024-01-06T05:26:58;3.70;99.90
13472;DHT22;6808;49.444;11.034;2024-01-06T05:29:24;3.70;99.90
13472;DHT22;6808;49.444;11.034;2024-01-06T05:31:51;3.70;99.90
13472;DHT22;6808;49.444;11.034;2024-01-06T05:34:17;3.70;99.90
13472;DHT22;6808;49.444;11.034;2024-01-06T05:36:42;3.70;99.90
13472;DHT22;6808;49.444;11.034;2024-01-06T05:39:08;3.60;99.90
13472;DHT22;6808;49.444;11.034;2024-01-06T05:41:40;3.60;99.90
13472;DHT22;6808;49.444;11.034;2024-01-06T05:44:06;3.60;99.90
13472;DHT22;6808;49.444;11.034;2024-01-06T05:46:33;3.60;99.90
13472;DHT22;6808;49.444;11.034;2024-01-06T05:48:58;3.60;99.90
13472;DHT22;6808;49.444;11.034;2024-01-06T05:51:25;3.60;99.90
13472;DHT22;6808;49.444;11.034;2024-01-06T05:53:50;3.60;99.90
13472;DHT22;6808;49.444;11.034;2024-01-06T05:56:25;3.50;99.90
13472;DHT22;6808;49.444;11.034;2024-01-06T05:58:52;3.50;99.90
13472;DHT22;6808;49.444;11.034;2024-01-06T06:01:19;3.50;99.90
13472;DHT22;6808;49.444;11.034;2024-01-06T06:03:45;3.50;99.90
13472;DHT22;6808;49.444;11.034;2024-01-06T06:06:11;3.60;99.90
13472;DHT22;6808;49.444;11.034;2024-01-06T06:08:37;3.60;99.90
13472;DHT22;6808;49.444;11.034;2024-01-06T06:11:02;3.60;99.90
13472;DHT22;6808;49.444;11.034;2024-01-06T06:13:30;3.60;99.90
13472;DHT22;6808;49.444;11.034;2024-01-06T06:15:56;3.60;99.90
13472;DHT22;6808;49.444;11.034;2024-01-06T06:18:23;3.60;99.90
13472;DHT22;6808;49.444;11.034;2024-01-06T06:20:48;3.60;99.90
13472;DHT22;6808;49.444;11.034;2024-01-06T06:23:14;3.60;99.90
13472;DHT22;6808;49.444;11.034;2024-01-06T06:25:39;3.60;99.90
13472;DHT22;6808;49.444;11.034;2024-01-06T06:28:05;3.60;99.90
13472;DHT22;6808;49.444;11.034;2024-01-06T06:30:32;3.50;99.90
13472;DHT22;6808;49.444;11.034;2024-01-06T06:32:57;3.50;99.90
13472;DHT22;6808;49.444;11.034;2024-01-06T06:35:24;3.50;99.90
13472;DHT22;6808;49.444;11.034;2024-01-06T06:37:50;3.50;99.90
13472;DHT22;6808;49.444;11.034;2024-01-06T06:40:15;3.50;99.90
13472;DHT22;6808;49.444;11.034;2024-01-06T06:42:42;3.50;99.90
13472;DHT22;6808;49.444;11.034;2024-01-06T06:45:08;3.50;99.90
13472;DHT22;6808;49.444;11.034;2024-01-06T06:47:36;3.40;99.90
13472;DHT22;6808;49.444;11.034;2024-01-06T06:50:01;3.40;99.90
13472;DHT22;6808;49.444;11.034;2024-01-06T06:52:27;3.40;99.90
13472;DHT22;6808;49.444;11.034;2024-01-06T06:54:53;3.40;99.90
13472;DHT22;6808;49.444;11.034;2024-01-06T06:57:18;3.40;99.90
13472;DHT22;6808;49.444;11.034;2024-01-06T06:59:44;3.40;99.90
13472;DHT22;6808;49.444;11.034;2024-01-06T07:02:10;3.40;99.90
13472;DHT22;6808;49.444;11.034;2024-01-06T07:04:36;3.40;99.90
13472;DHT22;6808;49.444;11.034;2024-01-06T07:07:02;3.40;99.90
13472;DHT22;6808;49.444;11.034;2024-01-06T07:09:28;3.40;99.90
13472;DHT22;6808;49.444;11.034;2024-01-06T07:11:53;3.30;99.90
13472;DHT22;6808;49.444;11.034;2024-01-06T07:14:19;3.40;99.90
13472;DHT22;6808;49.444;11.034;2024-01-06T07:16:44;2.80;99.90
13472;DHT22;6808;49.444;11.034;2024-01-06T07:19:10;3.30;99.90
13472;DHT22;6808;49.444;11.034;2024-01-06T07:21:36;3.30;99.90
13472;DHT22;6808;49.444;11.034;2024-01-06T07:24:02;3.30;99.90
13472;DHT22;6808;49.444;11.034;2024-01-06T07:26:28;3.30;99.90
13472;DHT22;6808;49.444;11.034;2024-01-06T07:28:54;3.40;99.90
13472;DHT22;6808;49.444;11.034;2024-01-06T07:31:19;3.30;99.90
13472;DHT22;6808;49.444;11.034;2024-01-06T07:33:45;3.30;99.90
13472;DHT22;6808;49.444;11.034;2024-01-06T07:36:10;3.30;99.90
13472;DHT22;6808;49.444;11.034;2024-01-06T07:38:36;3.30;99.90
13472;DHT22;6808;49.444;11.034;2024-01-06T07:41:02;3.30;99.90
13472;DHT22;6808;49.444;11.034;2024-01-06T07:43:30;3.30;99.90
13472;DHT22;6808;49.444;11.034;2024-01-06T07:45:55;3.30;99.90
13472;DHT22;6808;49.444;11.034;2024-01-06T07:48:21;3.30;99.90
13472;DHT22;6808;49.444;11.034;2024-01-06T07:50:46;3.30;99.90
13472;DHT22;6808;49.444;11.034;2024-01-06T07:53:12;3.30;99.90
13472;DHT22;6808;49.444;11.034;2024-01-06T07:55:39;3.30;99.90
13472;DHT22;6808;49.444;11.034;2024-01-06T07:58:05;3.30;99.90
13472;DHT22;6808;49.444;11.034;2024-01-06T08:00:32;3.30;99.90
13472;DHT22;6808;49.444;11.034;2024-01-06T08:02:57;3.30;99.90
13472;DHT22;6808;49.444;11.034;2024-01-06T08:05:23;3.30;99.90
13472;DHT22;6808;49.444;11.034;2024-01-06T08:07:50;3.30;99.90
13472;DHT22;6808;49.444;11.034;2024-01-06T08:10:16;3.40;99.90
13472;DHT22;6808;49.444;11.034;2024-01-06T08:12:42;3.40;99.90
13472;DHT22;6808;49.444;11.034;2024-01-06T08:15:08;3.40;99.90
13472;DHT22;6808;49.444;11.034;2024-01-06T08:17:34;3.40;99.90
13472;DHT22;6808;49.444;11.034;2024-01-06T08:20:00;3.40;99.90
13472;DHT22;6808;49.444;11.034;2024-01-06T08:22:26;3.40;99.90
13472;DHT22;6808;49.444;11.034;2024-01-06T08:24:51;3.50;99.90
13472;DHT22;6808;49.444;11.034;2024-01-06T08:27:17;3.40;99.90
13472;DHT22;6808;49.444;11.034;2024-01-06T08:29:43;3.50;99.90
13472;DHT22;6808;49.444;11.034;2024-01-06T08:32:08;3.50;99.90
13472;DHT22;6808;49.444;11.034;2024-01-06T08:34:35;3.50;99.90
13472;DHT22;6808;49.444;11.034;2024-01-06T08:37:01;3.50;99.90
13472;DHT22;6808;49.444;11.034;2024-01-06T08:39:26;3.50;99.90
13472;DHT22;6808;49.444;11.034;2024-01-06T08:41:52;3.60;99.90
13472;DHT22;6808;49.444;11.034;2024-01-06T08:44:17;3.60;99.90
13472;DHT22;6808;49.444;11.034;2024-01-06T08:46:43;3.60;99.90
13472;DHT22;6808;49.444;11.034;2024-01-06T08:49:09;3.60;99.90
13472;DHT22;6808;49.444;11.034;2024-01-06T08:51:35;3.60;99.90
13472;DHT22;6808;49.444;11.034;2024-01-06T08:54:01;3.70;99.90
13472;DHT22;6808;49.444;11.034;2024-01-06T08:56:30;3.70;99.90
13472;DHT22;6808;49.444;11.034;2024-01-06T08:58:55;3.70;99.90
13472;DHT22;6808;49.444;11.034;2024-01-06T09:01:22;3.70;99.90
13472;DHT22;6808;49.444;11.034;2024-01-06T09:03:48;3.70;99.90
13472;DHT22;6808;49.444;11.034;2024-01-06T09:06:14;3.80;99.90
13472;DHT22;6808;49.444;11.034;2024-01-06T09:08:40;3.80;99.90
13472;DHT22;6808;49.444;11.034;2024-01-06T09:11:05;3.80;99.90
13472;DHT22;6808;49.444;11.034;2024-01-06T09:13:31;3.80;99.90
13472;DHT22;6808;49.444;11.034;2024-01-06T09:15:58;3.90;99.90
13472;DHT22;6808;49.444;11.034;2024-01-06T09:18:26;3.90;99.90
13472;DHT22;6808;49.444;11.034;2024-01-06T09:20:52;4.00;99.90
13472;DHT22;6808;49.444;11.034;2024-01-06T09:23:17;4.00;99.90
13472;DHT22;6808;49.444;11.034;2024-01-06T09:25:43;4.00;99.90
13472;DHT22;6808;49.444;11.034;2024-01-06T09:28:08;4.00;99.90
13472;DHT22;6808;49.444;11.034;2024-01-06T09:30:35;4.10;99.90
13472;DHT22;6808;49.444;11.034;2024-01-06T09:33:02;4.10;99.90
13472;DHT22;6808;49.444;11.034;2024-01-06T09:35:28;4.10;99.90
13472;DHT22;6808;49.444;11.034;2024-01-06T09:37:53;4.10;99.90
13472;DHT22;6808;49.444;11.034;2024-01-06T09:40:23;4.20;99.90
13472;DHT22;6808;49.444;11.034;2024-01-06T09:42:50;4.20;99.90
13472;DHT22;6808;49.444;11.034;2024-01-06T09:45:16;4.20;99.90
13472;DHT22;6808;49.444;11.034;2024-01-06T09:47:42;4.20;99.90
13472;DHT22;6808;49.444;11.034;2024-01-06T09:50:12;4.20;99.90
13472;DHT22;6808;49.444;11.034;2024-01-06T09:52:41;4.30;99.90
13472;DHT22;6808;49.444;11.034;2024-01-06T09:55:11;4.20;99.90
13472;DHT22;6808;49.444;11.034;2024-01-06T09:57:37;4.30;99.90
13472;DHT22;6808;49.444;11.034;2024-01-06T10:00:02;4.30;99.90
13472;DHT22;6808;49.444;11.034;2024-01-06T10:02:29;4.30;99.90
13472;DHT22;6808;49.444;11.034;2024-01-06T10:04:57;4.30;99.90
13472;DHT22;6808;49.444;11.034;2024-01-06T10:07:25;4.40;99.90
13472;DHT22;6808;49.444;11.034;2024-01-06T10:09:54;4.40;99.90
13472;DHT22;6808;49.444;11.034;2024-01-06T10:12:25;4.40;99.90
13472;DHT22;6808;49.444;11.034;2024-01-06T10:14:52;4.30;99.90
13472;DHT22;6808;49.444;11.034;2024-01-06T10:17:17;4.40;99.90
13472;DHT22;6808;49.444;11.034;2024-01-06T10:19:46;4.40;99.90
13472;DHT22;6808;49.444;11.034;2024-01-06T10:22:13;4.50;99.90
13472;DHT22;6808;49.444;11.034;2024-01-06T10:24:39;4.50;99.90
13472;DHT22;6808;49.444;11.034;2024-01-06T10:27:05;4.50;99.90
13472;DHT22;6808;49.444;11.034;2024-01-06T10:29:31;4.50;99.90
13472;DHT22;6808;49.444;11.034;2024-01-06T10:31:57;4.60;99.90
13472;DHT22;6808;49.444;11.034;2024-01-06T10:34:23;4.60;99.90
13472;DHT22;6808;49.444;11.034;2024-01-06T10:36:50;4.60;99.90
13472;DHT22;6808;49.444;11.034;2024-01-06T10:39:18;4.60;99.90
13472;DHT22;6808;49.444;11.034;2024-01-06T10:41:43;4.70;99.90
13472;DHT22;6808;49.444;11.034;2024-01-06T10:44:11;4.70;99.90
13472;DHT22;6808;49.444;11.034;2024-01-06T10:46:38;4.70;99.90
13472;DHT22;6808;49.444;11.034;2024-01-06T10:49:05;4.80;99.90
13472;DHT22;6808;49.444;11.034;2024-01-06T10:51:34;4.80;99.90
13472;DHT22;6808;49.444;11.034;2024-01-06T10:54:01;4.80;99.90
13472;DHT22;6808;49.444;11.034;2024-01-06T10:56:29;4.80;99.90
13472;DHT22;6808;49.444;11.034;2024-01-06T10:58:56;4.80;99.90
13472;DHT22;6808;49.444;11.034;2024-01-06T11:01:23;4.90;99.90
13472;DHT22;6808;49.444;11.034;2024-01-06T11:03:50;4.90;99.90
13472;DHT22;6808;49.444;11.034;2024-01-06T11:06:19;4.90;99.90
13472;DHT22;6808;49.444;11.034;2024-01-06T11:09:02;4.90;99.90
13472;DHT22;6808;49.444;11.034;2024-01-06T11:11:29;5.00;99.90
13472;DHT22;6808;49.444;11.034;2024-01-06T11:16:45;5.00;99.90
13472;DHT22;6808;49.444;11.034;2024-01-06T11:22:29;4.90;99.90
13472;DHT22;6808;49.444;11.034;2024-01-06T11:25:17;5.00;99.90
13472;DHT22;6808;49.444;11.034;2024-01-06T11:27:46;5.00;99.90
13472;DHT22;6808;49.444;11.034;2024-01-06T11:30:23;5.10;99.90
13472;DHT22;6808;49.444;11.034;2024-01-06T11:32:50;5.10;99.90
13472;DHT22;6808;49.444;11.034;2024-01-06T11:35:18;5.10;99.90
13472;DHT22;6808;49.444;11.034;2024-01-06T11:43:25;5.20;99.90
13472;DHT22;6808;49.444;11.034;2024-01-06T11:45:55;5.20;99.90
13472;DHT22;6808;49.444;11.034;2024-01-06T11:48:23;5.30;99.90
13472;DHT22;6808;49.444;11.034;2024-01-06T11:50:49;5.30;99.90
13472;DHT22;6808;49.444;11.034;2024-01-06T11:53:15;5.30;99.90
13472;DHT22;6808;49.444;11.034;2024-01-06T11:55:40;5.30;99.90
13472;DHT22;6808;49.444;11.034;2024-01-06T11:58:07;5.30;99.90
13472;DHT22;6808;49.444;11.034;2024-01-06T12:00:34;5.30;99.90
13472;DHT22;6808;49.444;11.034;2024-01-06T12:03:01;5.30;99.90
13472;DHT22;6808;49.444;11.034;2024-01-06T12:05:28;5.30;99.90
13472;DHT22;6808;49.444;11.034;2024-01-06T12:07:55;5.30;99.90
13472;DHT22;6808;49.444;11.034;2024-01-06T12:10:22;5.30;99.90
13472;DHT22;6808;49.444;11.034;2024-01-06T12:13:01;5.30;99.90
13472;DHT22;6808;49.444;11.034;2024-01-06T12:15:34;5.30;99.90
13472;DHT22;6808;49.444;11.034;2024-01-06T12:18:03;5.30;99.90
13472;DHT22;6808;49.444;11.034;2024-01-06T12:20:29;5.30;99.90
13472;DHT22;6808;49.444;11.034;2024-01-06T12:22:55;5.30;99.90
13472;DHT22;6808;49.444;11.034;2024-01-06T12:25:24;5.30;99.90
13472;DHT22;6808;49.444;11.034;2024-01-06T12:27:52;5.20;99.90
13472;DHT22;6808;49.444;11.034;2024-01-06T12:30:20;5.30;99.90
13472;DHT22;6808;49.444;11.034;2024-01-06T12:32:47;5.30;99.90
13472;DHT22;6808;49.444;11.034;2024-01-06T12:35:14;5.30;99.90
13472;DHT22;6808;49.444;11.034;2024-01-06T12:37:42;5.20;99.90
13472;DHT22;6808;49.444;11.034;2024-01-06T12:40:11;5.20;99.90
13472;DHT22;6808;49.444;11.034;2024-01-06T12:42:38;5.30;99.90
13472;DHT22;6808;49.444;11.034;2024-01-06T12:45:05;5.30;99.90
13472;DHT22;6808;49.444;11.034;2024-01-06T12:47:31;5.30;99.90
13472;DHT22;6808;49.444;11.034;2024-01-06T12:49:57;5.30;99.90
13472;DHT22;6808;49.444;11.034;2024-01-06T12:52:22;5.30;99.90
13472;DHT22;6808;49.444;11.034;2024-01-06T12:54:48;5.30;99.90
13472;DHT22;6808;49.444;11.034;2024-01-06T12:57:13;5.30;99.90
13472;DHT22;6808;49.444;11.034;2024-01-06T12:59:39;5.30;99.90
13472;DHT22;6808;49.444;11.034;2024-01-06T13:02:05;5.30;99.90
13472;DHT22;6808;49.444;11.034;2024-01-06T13:04:30;5.40;99.90
13472;DHT22;6808;49.444;11.034;2024-01-06T13:06:56;5.40;99.90
13472;DHT22;6808;49.444;11.034;2024-01-06T13:09:22;5.40;99.90
13472;DHT22;6808;49.444;11.034;2024-01-06T13:11:49;5.40;99.90
13472;DHT22;6808;49.444;11.034;2024-01-06T13:14:16;5.40;99.90
13472;DHT22;6808;49.444;11.034;2024-01-06T13:16:42;5.40;99.90
13472;DHT22;6808;49.444;11.034;2024-01-06T13:19:07;5.70;99.90
13472;DHT22;6808;49.444;11.034;2024-01-06T13:21:33;5.40;99.90
13472;DHT22;6808;49.444;11.034;2024-01-06T13:24:01;5.40;99.90
13472;DHT22;6808;49.444;11.034;2024-01-06T13:26:28;5.40;99.90
13472;DHT22;6808;49.444;11.034;2024-01-06T13:28:54;5.40;99.90
13472;DHT22;6808;49.444;11.034;2024-01-06T13:31:19;5.40;99.90
13472;DHT22;6808;49.444;11.034;2024-01-06T13:33:45;5.50;99.90
13472;DHT22;6808;49.444;11.034;2024-01-06T13:36:11;5.50;99.90
13472;DHT22;6808;49.444;11.034;2024-01-06T13:38:37;5.40;99.90
13472;DHT22;6808;49.444;11.034;2024-01-06T13:41:03;5.40;99.90
13472;DHT22;6808;49.444;11.034;2024-01-06T13:43:29;5.40;99.90
13472;DHT22;6808;49.444;11.034;2024-01-06T13:45:55;5.40;99.90
13472;DHT22;6808;49.444;11.034;2024-01-06T13:48:21;5.40;99.90
13472;DHT22;6808;49.444;11.034;2024-01-06T13:50:47;5.40;99.90
13472;DHT22;6808;49.444;11.034;2024-01-06T13:53:13;5.40;99.90
13472;DHT22;6808;49.444;11.034;2024-01-06T13:55:39;5.40;99.90
13472;DHT22;6808;49.444;11.034;2024-01-06T13:58:05;5.40;99.90
13472;DHT22;6808;49.444;11.034;2024-01-06T14:00:30;5.40;99.90
13472;DHT22;6808;49.444;11.034;2024-01-06T14:02:56;5.40;99.90
13472;DHT22;6808;49.444;11.034;2024-01-06T14:05:22;5.40;99.90
13472;DHT22;6808;49.444;11.034;2024-01-06T14:07:48;5.40;99.90
13472;DHT22;6808;49.444;11.034;2024-01-06T14:10:16;5.40;99.90
13472;DHT22;6808;49.444;11.034;2024-01-06T14:12:41;5.40;99.90
13472;DHT22;6808;49.444;11.034;2024-01-06T14:15:08;5.40;99.90
13472;DHT22;6808;49.444;11.034;2024-01-06T14:17:34;5.40;99.90
13472;DHT22;6808;49.444;11.034;2024-01-06T14:20:00;5.30;99.90
13472;DHT22;6808;49.444;11.034;2024-01-06T14:22:27;5.30;99.90
13472;DHT22;6808;49.444;11.034;2024-01-06T14:24:52;5.30;99.90
13472;DHT22;6808;49.444;11.034;2024-01-06T14:27:18;5.30;99.90
13472;DHT22;6808;49.444;11.034;2024-01-06T14:29:44;5.30;99.90
13472;DHT22;6808;49.444;11.034;2024-01-06T14:32:10;5.30;99.90
13472;DHT22;6808;49.444;11.034;2024-01-06T14:34:35;5.30;99.90
13472;DHT22;6808;49.444;11.034;2024-01-06T14:37:01;5.30;99.90
13472;DHT22;6808;49.444;11.034;2024-01-06T14:39:26;5.30;99.90
13472;DHT22;6808;49.444;11.034;2024-01-06T14:41:52;5.30;99.90
13472;DHT22;6808;49.444;11.034;2024-01-06T14:44:18;5.30;99.90
13472;DHT22;6808;49.444;11.034;2024-01-06T14:46:47;5.30;99.90
13472;DHT22;6808;49.444;11.034;2024-01-06T14:49:13;5.30;99.90
13472;DHT22;6808;49.444;11.034;2024-01-06T14:51:38;5.30;99.90
13472;DHT22;6808;49.444;11.034;2024-01-06T14:54:04;5.20;99.90
13472;DHT22;6808;49.444;11.034;2024-01-06T14:56:30;5.20;99.90
13472;DHT22;6808;49.444;11.034;2024-01-06T14:58:59;5.20;99.90
13472;DHT22;6808;49.444;11.034;2024-01-06T15:01:24;5.20;99.90
13472;DHT22;6808;49.444;11.034;2024-01-06T15:03:50;5.20;99.90
13472;DHT22;6808;49.444;11.034;2024-01-06T15:06:15;5.20;99.90
13472;DHT22;6808;49.444;11.034;2024-01-06T15:08:42;5.20;99.90
13472;DHT22;6808;49.444;11.034;2024-01-06T15:11:08;5.20;99.90
13472;DHT22;6808;49.444;11.034;2024-01-06T15:13:33;5.20;99.90
13472;DHT22;6808;49.444;11.034;2024-01-06T15:16:01;5.20;99.90
13472;DHT22;6808;49.444;11.034;2024-01-06T15:18:27;5.20;99.90
13472;DHT22;6808;49.444;11.034;2024-01-06T15:20:52;5.20;99.90
13472;DHT22;6808;49.444;11.034;2024-01-06T15:23:19;5.20;99.90
13472;DHT22;6808;49.444;11.034;2024-01-06T15:25:45;5.20;99.90
13472;DHT22;6808;49.444;11.034;2024-01-06T15:28:10;5.10;99.90
13472;DHT22;6808;49.444;11.034;2024-01-06T15:30:36;5.10;99.90
13472;DHT22;6808;49.444;11.034;2024-01-06T15:33:01;5.10;99.90
13472;DHT22;6808;49.444;11.034;2024-01-06T15:35:27;5.10;99.90
13472;DHT22;6808;49.444;11.034;2024-01-06T15:37:52;5.10;99.90
13472;DHT22;6808;49.444;11.034;2024-01-06T15:40:18;5.10;99.90
13472;DHT22;6808;49.444;11.034;2024-01-06T15:42:46;5.00;99.90
13472;DHT22;6808;49.444;11.034;2024-01-06T15:45:11;5.10;99.90
13472;DHT22;6808;49.444;11.034;2024-01-06T15:47:40;5.00;99.90
13472;DHT22;6808;49.444;11.034;2024-01-06T15:50:06;4.90;99.90